To NAV CANADA Home Page Login to a new session Search on AWWS site Disclaimer Vers la page française équivalente Tips FAQ What's new on the site To the Forecasts and Observations / NOTAM section To "File a Flight Plan" website Publications and other links Update of the User's profile FIC Telephone Numbers My Weather Data Folder Route Weather Data Regional Weather Data Local Weather Data To the Forecasts and Observations / NOTAM section
Request Generated 10/05/2022 at 19:02:04 UTC . Weather information available at that time is displayed.

METAR/TAF

KAMLOOPS/BC    

METAR CYKA 051900Z 15003KT 090V200 30SM FEW060 FEW250 19/09 A3018 RMK CU1CI1 CU TR CI TR FU SLP225 DENSITY ALT 1600FT=
METAR CYKA 051800Z 00000KT 30SM FEW050 FEW250 18/09 A3019 RMK CU1CI1 CU TR CI TR FU SLP228 DENSITY ALT 1400FT=
METAR CYKA 051700Z 11004KT 070V130 30SM SKC 16/09 A3019 RMK SLP228 DENSITY ALT 1200FT=

TAF CYKA 051840Z 0519/0607 VRB03KT P6SM SCT050 SCT250
BECMG 0519/0520 31008KT
BECMG 0604/0606 VRB03KT
RMK NXT FCST BY 060100Z
Your time UTC time
Weather data provided by Environment Canada and NAV CANADA